Time;durP1;ratioP1;P1;durP2;ratioP2;P2;SDS_P1;SDS_P2;PMS_P1;PMS_P2;Temp;Humidity;BMP_temperature;BMP_pressure;BME280_temperature;BME280_humidity;BME280_pressure;Samples;Min_cycle;Max_cycle;Signal;HPM_P1;HPM_P2
2023/03/14 03:15:00;;;;;;;15.80;7.40;;;;;;;8.56;69.18;97265.59;106911;1306;545318;-53
2023/03/14 03:17:26;;;;;;;16.10;6.70;;;;;;;8.50;69.02;97258.91;107260;1314;22248;-47
2023/03/14 03:19:51;;;;;;;16.10;7.80;;;;;;;8.42;69.14;97251.61;107244;1314;23111;-54
2023/03/14 03:22:16;;;;;;;14.30;7.30;;;;;;;8.36;69.18;97247.55;107248;1314;22422;-48
2023/03/14 03:24:42;;;;;;;21.20;8.40;;;;;;;8.28;69.46;97241.23;107260;1314;22994;-55
2023/03/14 03:27:07;;;;;;;24.50;8.50;;;;;;;8.26;69.55;97236.67;107268;1314;22990;-51
2023/03/14 03:29:32;;;;;;;16.60;8.00;;;;;;;8.23;69.35;97234.59;107344;1312;129974;-54
2023/03/14 03:31:57;;;;;;;17.20;8.00;;;;;;;8.22;69.47;97224.26;107455;1311;22246;-56
2023/03/14 03:34:23;;;;;;;20.80;8.20;;;;;;;8.15;69.84;97222.73;107499;1311;22411;-53
2023/03/14 03:36:48;;;;;;;12.10;7.00;;;;;;;8.14;69.69;97213.67;107525;1311;23122;-48
2023/03/14 03:39:13;;;;;;;14.10;6.90;;;;;;;8.14;69.65;97212.65;107523;1311;22233;-53
2023/03/14 03:41:39;;;;;;;14.20;7.10;;;;;;;8.18;69.76;97203.11;107632;1310;22287;-50
2023/03/14 03:44:05;;;;;;;15.90;7.30;;;;;;;8.21;69.70;97199.89;107633;1310;22388;-57
2023/03/14 03:46:31;;;;;;;14.70;7.20;;;;;;;8.17;69.62;97197.07;107641;1310;22250;-48
2023/03/14 03:48:58;;;;;;;15.40;7.30;;;;;;;8.22;69.71;97195.27;107650;1310;22424;-46
2023/03/14 03:51:24;;;;;;;;;;;;;;;8.19;69.69;97204.19;107648;1310;22550;-46
2023/03/14 03:53:49;;;;;;;14.90;7.20;;;;;;;8.21;69.83;97214.49;107654;1302;22272;-55
2023/03/14 03:56:15;;;;;;;16.60;6.80;;;;;;;8.24;69.69;97214.48;107652;1310;22241;-52
2023/03/14 03:58:41;;;;;;;16.90;7.10;;;;;;;8.17;69.82;97201.23;107645;1310;23309;-48
2023/03/14 04:01:08;;;;;;;16.60;7.30;;;;;;;8.17;69.67;97194.47;107650;1310;22264;-53
2023/03/14 04:03:34;;;;;;;13.10;7.20;;;;;;;8.17;69.59;97197.75;107634;1310;22486;-58
2023/03/14 04:06:01;;;;;;;16.50;7.70;;;;;;;8.18;69.80;97202.91;107664;1310;23000;-49
2023/03/14 04:08:26;;;;;;;21.20;8.20;;;;;;;8.13;69.79;97202.39;107636;1310;22259;-54
2023/03/14 04:10:56;;;;;;;15.80;7.50;;;;;;;8.07;69.96;97194.66;107627;1310;22238;-52
2023/03/14 04:13:22;;;;;;;14.40;7.40;;;;;;;8.04;70.04;97192.12;107618;1310;22558;-50
2023/03/14 04:15:47;;;;;;;14.10;7.60;;;;;;;8.06;70.28;97187.27;107643;1310;23031;-56
2023/03/14 04:18:12;;;;;;;13.10;6.60;;;;;;;8.04;70.06;97179.20;107640;1310;22318;-56
2023/03/14 04:20:37;;;;;;;18.80;7.20;;;;;;;8.03;70.20;97176.30;107640;1310;22242;-54
2023/03/14 04:23:03;;;;;;;17.10;7.60;;;;;;;8.01;70.34;97172.58;107641;1310;22240;-51
2023/03/14 04:25:28;;;;;;;14.90;7.40;;;;;;;8.00;70.34;97168.55;107604;1310;22281;-45
2023/03/14 04:27:53;;;;;;;13.60;6.60;;;;;;;8.01;70.61;97162.31;107613;1310;23012;-53
2023/03/14 04:30:19;;;;;;;18.10;6.90;;;;;;;8.02;70.46;97154.22;107627;1310;22249;-51
2023/03/14 04:32:44;;;;;;;16.20;7.10;;;;;;;7.99;70.70;97151.98;107606;1310;22331;-48
2023/03/14 04:35:09;;;;;;;18.60;7.00;;;;;;;8.00;70.64;97158.58;107634;1310;22186;-51
2023/03/14 04:37:34;;;;;;;12.40;6.50;;;;;;;7.96;70.77;97149.98;107642;1310;22266;-48
2023/03/14 04:40:00;;;;;;;17.70;7.50;;;;;;;7.94;70.72;97139.55;107589;1310;22434;-53
2023/03/14 04:42:25;;;;;;;19.10;8.00;;;;;;;7.93;70.93;97128.25;107637;1310;22197;-44
2023/03/14 04:44:50;;;;;;;20.80;8.70;;;;;;;7.93;70.83;97130.38;107614;1310;23050;-54
2023/03/14 04:47:16;;;;;;;16.40;8.30;;;;;;;7.92;70.95;97129.07;107627;1310;22460;-47
2023/03/14 04:49:41;;;;;;;10.70;6.10;;;;;;;7.93;71.04;97125.14;107620;1310;22324;-55
2023/03/14 04:52:06;;;;;;;14.00;5.90;;;;;;;7.99;71.01;97126.55;107615;1310;23188;-49
2023/03/14 04:54:32;;;;;;;14.10;5.50;;;;;;;8.04;71.03;97125.94;107627;1310;22718;-45
2023/03/14 04:56:57;;;;;;;11.40;5.20;;;;;;;8.07;70.73;97124.15;107621;1310;23006;-52
2023/03/14 04:59:22;;;;;;;12.90;5.50;;;;;;;8.10;70.77;97125.50;107644;1310;22443;-51
2023/03/14 05:01:49;;;;;;;16.80;6.20;;;;;;;8.16;70.96;97119.99;107647;1310;22444;-54
2023/03/14 05:04:15;;;;;;;10.00;4.90;;;;;;;8.21;70.81;97114.48;107642;1310;22498;-53
2023/03/14 05:06:42;;;;;;;11.60;5.60;;;;;;;8.25;70.93;97112.80;107627;1310;22423;-52
2023/03/14 05:09:07;;;;;;;15.10;6.40;;;;;;;8.25;70.70;97105.29;107643;1310;22420;-51
2023/03/14 05:11:32;;;;;;;13.80;6.20;;;;;;;8.26;70.53;97097.83;107636;1310;22238;-54
2023/03/14 05:13:58;;;;;;;11.40;5.70;;;;;;;8.31;70.46;97104.13;107621;1310;22959;-51
2023/03/14 05:16:23;;;;;;;14.80;5.80;;;;;;;8.34;70.44;97100.35;107600;1310;22423;-49
2023/03/14 05:18:50;;;;;;;10.90;5.20;;;;;;;8.33;70.19;97099.05;107269;1310;22331;-51
2023/03/14 05:21:15;;;;;;;10.80;5.90;;;;;;;8.33;70.28;97091.40;107651;1310;22291;-48
2023/03/14 05:23:41;;;;;;;13.50;5.60;;;;;;;8.35;70.26;97090.90;107619;1310;23162;-55
2023/03/14 05:26:06;;;;;;;11.60;5.90;;;;;;;8.33;70.28;97082.86;107645;1310;22249;-47
2023/03/14 05:28:31;;;;;;;12.30;6.40;;;;;;;8.31;70.33;97086.81;107634;1310;22236;-49
2023/03/14 05:30:56;;;;;;;15.00;6.00;;;;;;;8.32;70.49;97084.98;107660;1310;23266;-62
2023/03/14 05:33:22;;;;;;;13.30;5.70;;;;;;;8.33;70.64;97078.30;107651;1310;22402;-51
2023/03/14 05:35:47;;;;;;;69.50;9.40;;;;;;;8.34;70.48;97053.79;107632;1310;22276;-48
2023/03/14 05:38:12;;;;;;;17.00;7.10;;;;;;;8.28;70.21;97018.44;107605;1310;22426;-57
2023/03/14 05:40:38;;;;;;;17.50;6.90;;;;;;;8.30;70.38;97022.36;107656;1310;23031;-52
2023/03/14 05:43:03;;;;;;;12.40;6.60;;;;;;;8.33;70.43;97035.52;107598;1310;23209;-42
2023/03/14 05:45:28;;;;;;;11.70;6.10;;;;;;;8.34;70.33;97036.81;107704;1309;22924;-49
2023/03/14 05:47:54;;;;;;;15.40;6.50;;;;;;;8.37;70.34;97033.96;107697;1309;22228;-53
2023/03/14 05:50:19;;;;;;;9.50;5.50;;;;;;;8.40;70.33;97040.03;107687;1309;22243;-51
2023/03/14 05:52:44;;;;;;;17.30;7.80;;;;;;;8.45;70.09;97036.27;107551;1305;22239;-46
2023/03/14 05:55:10;;;;;;;18.10;7.70;;;;;;;8.48;70.16;97042.89;107608;1310;22403;-53
2023/03/14 05:57:35;;;;;;;11.90;6.70;;;;;;;8.48;70.40;97041.13;107606;1310;22237;-52
2023/03/14 06:00:00;;;;;;;11.60;7.10;;;;;;;8.52;70.42;97031.54;107608;1310;22309;-43
2023/03/14 06:02:25;;;;;;;17.10;8.30;;;;;;;8.56;70.10;97028.55;107602;1310;22685;-49
2023/03/14 06:04:51;;;;;;;15.80;8.10;;;;;;;8.62;69.94;97032.61;107632;1310;22241;-46
2023/03/14 06:07:17;;;;;;;20.10;7.80;;;;;;;8.63;69.92;97049.11;107622;1310;22408;-47
2023/03/14 06:09:42;;;;;;;13.50;7.10;;;;;;;8.68;69.86;97055.01;107595;1310;22925;-47
2023/03/14 06:12:08;;;;;;;11.20;6.30;;;;;;;8.72;69.64;97057.32;107622;1310;22416;-53
2023/03/14 06:14:34;;;;;;;14.90;6.50;;;;;;;8.73;69.65;97056.83;107601;1310;22243;-47
2023/03/14 06:16:59;;;;;;;16.80;6.40;;;;;;;8.76;69.58;97058.48;107616;1310;22413;-50
2023/03/14 06:19:25;;;;;;;20.50;7.60;;;;;;;8.82;69.28;97054.02;107627;1310;22422;-51
2023/03/14 06:21:51;;;;;;;16.90;7.10;;;;;;;8.85;69.30;97049.61;107606;1310;22267;-49
2023/03/14 06:24:16;;;;;;;15.20;7.50;;;;;;;8.89;69.28;97046.96;107601;1310;22233;-49
2023/03/14 06:26:42;;;;;;;17.40;6.70;;;;;;;8.94;69.16;97044.95;107609;1310;23136;-46
2023/03/14 06:29:07;;;;;;;22.90;8.10;;;;;;;9.02;69.10;97049.00;107583;1310;22227;-46
2023/03/14 06:31:33;;;;;;;16.10;6.60;;;;;;;9.07;68.85;97053.36;107605;1310;22493;-48
2023/03/14 06:33:58;;;;;;;10.50;5.30;;;;;;;9.12;68.56;97056.25;107616;1310;22920;-49
2023/03/14 06:36:24;;;;;;;8.70;5.30;;;;;;;9.19;68.26;97054.16;107586;1310;22489;-44
2023/03/14 06:38:49;;;;;;;13.60;4.90;;;;;;;9.31;68.12;97050.06;107603;1310;22237;-55
2023/03/14 06:41:15;;;;;;;12.20;5.10;;;;;;;9.45;67.82;97046.70;107614;1310;23084;-51
2023/03/14 06:43:41;;;;;;;11.30;6.30;;;;;;;9.59;67.38;97043.57;107615;1310;22931;-56
2023/03/14 06:46:06;;;;;;;14.60;4.60;;;;;;;9.75;67.08;97044.17;107591;1310;22263;-54
2023/03/14 06:48:31;;;;;;;10.90;3.80;;;;;;;9.88;66.28;97045.13;107618;1302;22479;-48
2023/03/14 06:50:57;;;;;;;10.00;4.00;;;;;;;10.00;65.91;97049.64;107611;1298;22487;-49
2023/03/14 06:53:22;;;;;;;7.80;3.60;;;;;;;10.09;65.35;97048.35;107645;1295;23422;-51
2023/03/14 06:55:47;;;;;;;13.70;4.00;;;;;;;10.18;65.42;97049.61;107675;1298;23202;-41
2023/03/14 06:58:13;;;;;;;7.20;3.20;;;;;;;10.27;65.24;97045.79;107653;1295;22228;-43
2023/03/14 07:00:38;;;;;;;8.50;3.50;;;;;;;10.33;64.49;97047.45;107676;1295;22919;-49
2023/03/14 07:03:04;;;;;;;7.00;3.60;;;;;;;10.40;64.34;97053.16;107664;1298;22999;-45
2023/03/14 07:05:29;;;;;;;5.60;3.60;;;;;;;10.42;64.57;97054.84;107673;1301;22246;-52
2023/03/14 07:07:55;;;;;;;7.90;3.50;;;;;;;10.47;64.32;97059.13;107686;1309;22973;-40
2023/03/14 07:10:20;;;;;;;8.40;3.60;;;;;;;10.51;64.16;97062.09;107705;1295;22464;-51
2023/03/14 07:12:45;;;;;;;7.30;4.20;;;;;;;10.53;63.83;97054.96;107629;1298;22442;-39
2023/03/14 07:15:11;;;;;;;6.70;3.20;;;;;;;10.56;63.96;97052.50;107608;1299;22303;-44
2023/03/14 07:17:36;;;;;;;8.10;4.40;;;;;;;10.62;64.00;97050.43;107608;1303;22240;-53
2023/03/14 07:20:04;;;;;;;5.80;4.00;;;;;;;10.63;64.03;97058.34;107615;1295;22786;-48
2023/03/14 07:22:30;;;;;;;15.90;4.90;;;;;;;10.58;63.46;97064.66;107646;1295;22450;-45
2023/03/14 07:24:55;;;;;;;10.50;4.40;;;;;;;10.61;63.53;97066.11;107620;1304;23075;-52
2023/03/14 07:27:20;;;;;;;11.80;4.20;;;;;;;10.63;63.36;97064.31;107602;1295;22266;-51
2023/03/14 07:29:45;;;;;;;11.40;4.70;;;;;;;10.66;63.40;97067.77;107626;1307;22504;-49
2023/03/14 07:32:14;;;;;;;13.40;4.30;;;;;;;10.70;63.71;97082.93;107606;1310;22434;-48
2023/03/14 07:34:40;;;;;;;12.70;4.60;;;;;;;10.69;63.23;97082.22;107627;1304;22655;-43
2023/03/14 07:37:06;;;;;;;15.60;4.40;;;;;;;10.73;63.61;97089.19;107629;1298;22236;-48
2023/03/14 07:39:31;;;;;;;18.40;5.40;;;;;;;10.78;63.57;97098.91;107613;1306;22418;-55
2023/03/14 07:41:57;;;;;;;15.50;4.90;;;;;;;10.85;63.27;97099.72;107629;1304;22329;-52
2023/03/14 07:44:22;;;;;;;7.90;3.90;;;;;;;10.91;62.57;97099.29;107685;1295;23019;-54
2023/03/14 07:46:48;;;;;;;12.50;4.60;;;;;;;11.04;63.09;97093.08;107677;1295;22327;-51
2023/03/14 07:49:13;;;;;;;8.50;4.10;;;;;;;11.11;62.51;97094.14;107656;1309;22218;-51
2023/03/14 07:51:38;;;;;;;6.90;3.80;;;;;;;11.20;62.25;97085.91;107707;1294;22449;-54
2023/03/14 07:54:03;;;;;;;10.00;3.90;;;;;;;11.32;62.49;97100.97;107658;1308;22445;-49
2023/03/14 07:56:29;;;;;;;12.90;4.20;;;;;;;11.38;62.24;97105.48;107507;1296;22479;-51
2023/03/14 07:58:54;;;;;;;9.00;4.20;;;;;;;11.44;62.32;97111.43;107680;1298;22642;-48
2023/03/14 08:01:19;;;;;;;11.40;4.50;;;;;;;11.51;62.45;97107.64;107661;1302;22397;-49
2023/03/14 08:03:45;;;;;;;11.10;4.60;;;;;;;11.59;61.98;97109.83;107673;1295;22801;-52
2023/03/14 08:06:10;;;;;;;10.00;4.00;;;;;;;11.59;60.98;97117.78;107704;1294;22450;-54
2023/03/14 08:08:35;;;;;;;6.90;3.80;;;;;;;11.56;60.63;97114.73;107466;1306;22247;-58
2023/03/14 08:11:05;;;;;;;8.70;3.50;;;;;;;11.56;60.94;97115.21;107665;1302;22252;-55
2023/03/14 08:13:31;;;;;;;9.60;4.00;;;;;;;11.53;60.70;97120.21;107688;1309;22458;-48
2023/03/14 08:15:56;;;;;;;11.10;4.30;;;;;;;11.62;61.04;97119.60;107613;1303;22236;-45
2023/03/14 08:18:22;;;;;;;8.00;3.60;;;;;;;11.68;60.57;97114.79;107696;1301;23007;-57
2023/03/14 08:20:47;;;;;;;10.60;4.50;;;;;;;11.72;60.16;97107.73;107675;1309;22398;-47
2023/03/14 08:23:12;;;;;;;10.10;4.00;;;;;;;11.75;60.45;97105.19;107665;1309;22396;-46
2023/03/14 08:25:38;;;;;;;12.20;4.30;;;;;;;11.79;60.38;97108.66;106709;1302;22783;-46
2023/03/14 08:28:04;;;;;;;10.20;4.20;;;;;;;11.74;60.15;97112.49;107599;1295;23600;-53
2023/03/14 08:30:29;;;;;;;14.00;4.40;;;;;;;11.80;60.62;97108.27;107640;1295;23231;-50
2023/03/14 08:32:57;;;;;;;10.30;4.10;;;;;;;11.84;60.68;97105.03;107592;1304;23178;-48
2023/03/14 08:35:22;;;;;;;5.90;3.70;;;;;;;11.82;60.48;97105.04;107594;1302;22549;-44
2023/03/14 08:37:47;;;;;;;7.50;3.70;;;;;;;11.88;60.64;97111.46;107681;1298;22930;-44
2023/03/14 08:40:13;;;;;;;4.80;3.50;;;;;;;11.94;60.35;97106.72;107596;1302;22429;-45
2023/03/14 08:42:39;;;;;;;8.60;4.10;;;;;;;12.00;60.31;97109.51;107594;1304;22582;-51
2023/03/14 08:45:06;;;;;;;14.80;4.90;;;;;;;12.09;60.27;97099.71;107627;1299;22257;-52
2023/03/14 08:47:31;;;;;;;9.50;4.80;;;;;;;12.17;60.01;97088.73;107610;1303;22206;-42
2023/03/14 08:49:56;;;;;;;7.50;4.70;;;;;;;12.32;59.98;97083.84;107680;1301;23192;-54
2023/03/14 08:52:22;;;;;;;8.90;3.70;;;;;;;12.39;59.49;97086.05;107619;1291;22257;-44
2023/03/14 08:54:47;;;;;;;8.60;3.90;;;;;;;12.33;58.79;97092.59;107605;1301;22548;-48
2023/03/14 08:57:13;;;;;;;9.40;5.00;;;;;;;12.38;59.14;97097.61;107627;1301;23094;-58
2023/03/14 08:59:38;;;;;;;9.60;4.50;;;;;;;12.38;59.04;97096.35;107613;1301;22244;-46
2023/03/14 09:02:03;;;;;;;12.30;4.00;;;;;;;12.41;59.46;97091.87;107619;1302;22411;-56
2023/03/14 09:04:32;;;;;;;11.90;4.30;;;;;;;12.44;58.74;97091.04;107629;1301;25124;-51
2023/03/14 09:06:59;;;;;;;7.10;3.40;;;;;;;12.48;58.95;97095.89;107655;1307;22935;-45
2023/03/14 09:09:27;;;;;;;9.00;3.60;;;;;;;12.51;58.37;97093.67;107635;1303;22219;-45
2023/03/14 09:11:55;;;;;;;9.00;4.00;;;;;;;12.52;58.79;97093.39;107665;1308;22413;-45
2023/03/14 09:14:21;;;;;;;6.60;3.50;;;;;;;12.60;58.94;97092.46;107642;1301;22512;-57
2023/03/14 09:16:46;;;;;;;7.50;3.40;;;;;;;12.61;58.46;97071.55;107620;1301;22723;-54
2023/03/14 09:19:11;;;;;;;7.10;3.40;;;;;;;12.69;58.44;97067.96;107679;1306;23114;-53
2023/03/14 09:21:38;;;;;;;5.40;3.30;;;;;;;12.78;58.32;97078.73;107636;1295;22156;-44
2023/03/14 09:24:04;;;;;;;7.40;3.70;;;;;;;12.86;57.81;97094.92;107654;1296;23072;-52
2023/03/14 09:26:29;;;;;;;13.80;3.30;;;;;;;12.92;57.47;97102.98;107640;1294;22245;-58
2023/03/14 09:28:54;;;;;;;8.60;3.90;;;;;;;12.96;57.33;97104.20;107662;1301;22393;-53
2023/03/14 09:31:20;;;;;;;6.80;3.80;;;;;;;12.99;56.71;97101.63;107675;1301;22240;-48
2023/03/14 09:33:45;;;;;;;7.50;3.80;;;;;;;13.22;57.21;97093.11;107680;1295;22183;-41
2023/03/14 09:36:11;;;;;;;7.20;3.50;;;;;;;13.42;55.85;97094.80;107675;1296;24397;-50
2023/03/14 09:38:36;;;;;;;9.50;3.60;;;;;;;13.55;56.19;97097.39;107622;1303;22373;-52
2023/03/14 09:41:15;;;;;;;10.10;4.00;;;;;;;13.66;55.36;97097.38;107645;1309;22344;-42
2023/03/14 09:43:43;;;;;;;7.60;3.50;;;;;;;13.78;55.32;97096.33;107664;1301;23369;-44
2023/03/14 09:46:11;;;;;;;7.30;3.20;;;;;;;13.80;54.61;97098.36;107471;1296;22442;-51
2023/03/14 09:48:36;;;;;;;;;;;;;;;13.91;54.91;97094.52;107719;1301;22398;-51
2023/03/14 09:51:11;;;;;;;6.10;2.90;;;;;;;14.00;54.27;97080.42;107658;1302;22236;-59
2023/03/14 09:53:42;;;;;;;6.60;3.30;;;;;;;14.09;54.69;97076.52;107639;1304;23095;-48
2023/03/14 09:56:20;;;;;;;9.00;3.50;;;;;;;13.94;54.18;97075.94;107639;1301;23339;-46
2023/03/14 09:58:53;;;;;;;6.50;3.40;;;;;;;13.94;53.99;97071.16;107656;1305;22441;-44
2023/03/14 10:01:23;;;;;;;3.90;3.30;;;;;;;13.90;54.13;97067.52;107476;1296;22436;-58
2023/03/14 10:03:50;;;;;;;14.70;4.00;;;;;;;13.87;54.58;97070.17;107716;1301;22418;-47
2023/03/14 10:06:15;;;;;;;4.00;3.30;;;;;;;13.85;54.89;97072.67;107647;1301;22301;-48
2023/03/14 10:08:43;;;;;;;7.50;3.30;;;;;;;13.80;54.68;97074.05;107680;1294;22925;-56
2023/03/14 10:11:17;;;;;;;6.30;3.30;;;;;;;13.75;54.95;97063.80;107634;1306;22961;-51
2023/03/14 10:13:50;;;;;;;11.30;3.40;;;;;;;13.70;55.36;97065.71;107641;1298;22243;-47
2023/03/14 10:16:16;;;;;;;6.40;3.90;;;;;;;13.58;55.22;97065.08;107649;1299;22365;-53
2023/03/14 10:18:46;;;;;;;5.30;3.10;;;;;;;13.48;55.53;97064.24;107595;1295;22237;-43
2023/03/14 10:21:42;;;;;;;8.20;3.30;;;;;;;13.42;55.51;97064.91;107661;1295;22446;-50
2023/03/14 10:24:45;;;;;;;8.60;3.50;;;;;;;13.33;55.85;97077.27;106790;1306;22408;-50
2023/03/14 10:27:21;;;;;;;8.40;3.40;;;;;;;13.21;56.23;97086.23;106526;1307;22388;-50
2023/03/14 10:29:58;;;;;;;6.80;2.80;;;;;;;13.17;56.58;97089.29;106448;1310;23140;-53
2023/03/14 10:32:37;;;;;;;6.40;2.90;;;;;;;13.20;56.48;97089.50;106449;1310;22278;-53
2023/03/14 10:35:22;;;;;;;8.30;3.60;;;;;;;13.26;56.75;97090.25;106422;1309;22343;-53
2023/03/14 10:38:00;;;;;;;5.10;3.20;;;;;;;13.30;56.74;97088.45;106345;1319;22597;-49
2023/03/14 10:40:30;;;;;;;8.00;3.70;;;;;;;13.34;56.57;97084.70;106477;1310;23290;-58
2023/03/14 10:42:58;;;;;;;12.80;3.70;;;;;;;13.32;56.37;97091.96;106480;1309;22270;-50
2023/03/14 10:45:33;;;;;;;8.00;3.40;;;;;;;13.22;56.28;97091.59;106444;1316;22246;-48
2023/03/14 10:48:25;;;;;;;9.30;3.60;;;;;;;13.15;56.50;97094.71;106412;1316;23010;-48
2023/03/14 10:50:56;;;;;;;8.90;3.60;;;;;;;13.07;56.94;97096.87;106496;1316;22258;-50
2023/03/14 10:53:23;;;;;;;17.20;3.80;;;;;;;13.00;57.10;97100.64;106522;1316;22413;-51
2023/03/14 10:55:49;;;;;;;7.60;4.00;;;;;;;12.93;57.13;97108.51;106510;1317;22288;-54
2023/03/14 10:58:26;;;;;;;9.10;4.60;;;;;;;12.81;57.84;97112.02;106487;1316;22345;-41
2023/03/14 11:01:27;;;;;;;12.00;5.10;;;;;;;12.69;58.11;97118.27;106673;1310;22256;-55
2023/03/14 11:04:13;;;;;;;6.20;4.20;;;;;;;12.54;58.32;97116.77;107381;1309;22230;-54
2023/03/14 11:06:52;;;;;;;7.10;4.10;;;;;;;12.45;58.65;97115.84;107658;1306;22643;-45
2023/03/14 11:09:27;;;;;;;10.80;4.20;;;;;;;12.34;59.27;97121.21;107685;1301;22190;-49
2023/03/14 11:11:59;;;;;;;8.50;3.90;;;;;;;12.24;59.69;97122.84;107721;1304;22309;-53
2023/03/14 11:14:40;;;;;;;8.10;3.80;;;;;;;12.20;59.85;97120.80;107365;1298;22362;-48
2023/03/14 11:17:24;;;;;;;9.80;4.30;;;;;;;12.10;60.42;97120.84;107655;1304;23302;-43
2023/03/14 11:20:01;;;;;;;7.40;3.80;;;;;;;12.05;61.43;97121.70;107654;1304;22975;-44
2023/03/14 11:22:57;;;;;;;7.40;3.70;;;;;;;11.98;63.09;97121.30;107664;1302;22369;-42
2023/03/14 11:25:38;;;;;;;7.30;3.80;;;;;;;11.90;63.23;97128.32;107548;1302;22381;-47
2023/03/14 11:28:18;;;;;;;6.90;3.70;;;;;;;11.80;63.92;97139.28;107652;1307;22408;-52
2023/03/14 11:31:16;;;;;;;6.80;4.00;;;;;;;11.64;64.78;97142.06;107675;1304;23003;-50
2023/03/14 11:33:54;;;;;;;7.80;3.60;;;;;;;11.59;64.97;97149.37;107651;1304;22330;-51
2023/03/14 11:36:32;;;;;;;7.40;4.00;;;;;;;11.49;66.30;97153.39;107665;1306;22915;-45
2023/03/14 11:38:59;;;;;;;9.00;4.10;;;;;;;11.41;67.28;97154.38;107673;1295;22257;-50
2023/03/14 11:41:39;;;;;;;10.30;4.20;;;;;;;11.29;68.88;97158.07;107641;1309;22235;-48
2023/03/14 11:44:14;;;;;;;6.20;3.80;;;;;;;11.14;70.74;97157.68;107663;1295;22360;-50
2023/03/14 11:46:54;;;;;;;8.50;4.10;;;;;;;11.06;72.29;97151.40;107687;1295;22227;-48
2023/03/14 11:49:38;;;;;;;7.70;3.90;;;;;;;11.05;72.39;97145.37;107669;1301;22255;-47
2023/03/14 11:52:20;;;;;;;6.60;4.00;;;;;;;11.00;73.39;97148.84;107651;1301;23122;-51
2023/03/14 11:54:52;;;;;;;7.20;4.30;;;;;;;10.98;74.13;97146.00;107679;1295;22412;-45
2023/03/14 11:57:20;;;;;;;7.40;3.90;;;;;;;11.00;73.84;97141.11;107636;1306;22224;-53
2023/03/14 12:00:12;;;;;;;5.40;3.90;;;;;;;10.96;75.77;97137.59;107674;1298;22234;-45
2023/03/14 12:03:04;;;;;;;9.50;4.50;;;;;;;10.95;75.42;97133.49;107637;1306;22421;-48
2023/03/14 12:05:54;;;;;;;6.60;4.00;;;;;;;10.90;76.80;97131.70;107705;1302;22247;-49
2023/03/14 12:08:38;;;;;;;8.90;4.40;;;;;;;10.80;78.13;97127.98;107694;1302;22226;-47
2023/03/14 12:11:41;;;;;;;7.60;4.00;;;;;;;10.78;79.45;97125.40;107668;1301;22478;-45
2023/03/14 12:14:27;;;;;;;8.60;4.50;;;;;;;10.70;79.92;97126.95;107667;1307;22323;-45
2023/03/14 12:16:58;;;;;;;5.90;4.00;;;;;;;10.65;80.90;97122.72;107672;1295;22874;-51
2023/03/14 12:19:23;;;;;;;7.00;4.00;;;;;;;10.62;81.30;97121.89;107716;1301;22365;-45
2023/03/14 12:21:57;;;;;;;7.50;4.70;;;;;;;10.57;81.82;97116.24;107749;1302;23471;-43
2023/03/14 12:24:26;;;;;;;11.90;5.00;;;;;;;10.57;82.56;97113.63;107708;1302;22331;-42
2023/03/14 12:26:57;;;;;;;11.70;4.20;;;;;;;10.63;81.13;97109.39;107696;1301;22425;-53
2023/03/14 12:29:23;;;;;;;13.30;6.10;;;;;;;10.59;81.57;97103.60;107684;1302;22337;-50
2023/03/14 12:32:23;;;;;;;12.60;5.40;;;;;;;10.58;82.18;97099.51;107685;1298;22248;-53
2023/03/14 12:34:49;;;;;;;10.40;4.90;;;;;;;10.53;83.07;97103.05;107695;1307;22353;-55
2023/03/14 12:37:33;;;;;;;11.10;5.70;;;;;;;10.51;84.68;97105.38;107696;1295;22404;-50
2023/03/14 12:40:12;;;;;;;10.80;5.80;;;;;;;10.57;85.21;97103.24;107699;1294;22248;-47
2023/03/14 12:42:44;;;;;;;8.40;4.70;;;;;;;10.56;85.87;97102.77;107478;1304;22283;-46
2023/03/14 12:45:29;;;;;;;13.80;4.90;;;;;;;10.63;84.11;97099.23;107718;1309;22396;-53
2023/03/14 12:48:09;;;;;;;7.90;5.40;;;;;;;10.63;85.05;97097.46;107712;1301;22337;-53
2023/03/14 12:50:40;;;;;;;10.60;5.40;;;;;;;10.64;84.37;97091.63;107728;1306;23295;-51
2023/03/14 12:53:38;;;;;;;11.10;6.40;;;;;;;10.59;85.47;97080.84;107703;1309;22253;-41
2023/03/14 12:56:20;;;;;;;10.30;5.80;;;;;;;10.61;84.95;97084.48;107662;1295;23113;-53
2023/03/14 12:59:09;;;;;;;12.70;7.10;;;;;;;10.59;85.80;97082.21;107657;1295;23091;-46
2023/03/14 13:01:35;;;;;;;11.00;4.90;;;;;;;10.58;86.96;97078.83;107697;1298;22349;-47
2023/03/14 13:04:09;;;;;;;11.40;5.00;;;;;;;10.54;87.62;97075.66;107682;1304;22419;-52
2023/03/14 13:06:53;;;;;;;12.00;6.40;;;;;;;10.54;87.58;97067.98;107687;1301;22371;-42
2023/03/14 13:09:36;;;;;;;8.70;5.40;;;;;;;10.56;86.76;97055.00;107684;1301;22973;-49
2023/03/14 13:12:14;;;;;;;10.10;5.40;;;;;;;10.50;87.64;97057.80;107692;1302;23088;-48
2023/03/14 13:14:49;;;;;;;7.70;4.50;;;;;;;10.45;88.24;97061.61;107729;1302;22224;-49
2023/03/14 13:17:22;;;;;;;11.00;5.10;;;;;;;10.42;89.06;97064.71;107474;1294;22342;-49
2023/03/14 13:19:55;;;;;;;10.40;5.20;;;;;;;10.25;90.27;97061.27;107517;1298;23141;-49
2023/03/14 13:22:25;;;;;;;13.60;5.90;;;;;;;10.24;90.10;97066.04;107708;1298;22425;-52
2023/03/14 13:24:59;;;;;;;7.00;4.70;;;;;;;10.23;90.86;97069.85;107686;1295;23014;-54
2023/03/14 13:27:25;;;;;;;10.20;4.40;;;;;;;10.23;91.13;97068.11;107706;1303;22450;-43
2023/03/14 13:29:51;;;;;;;9.50;5.20;;;;;;;10.23;90.80;97069.46;107680;1296;23237;-46
2023/03/14 13:32:20;;;;;;;8.50;5.00;;;;;;;10.20;90.62;97066.44;107511;1295;22462;-41
2023/03/14 13:34:48;;;;;;;10.60;4.50;;;;;;;10.13;92.38;97057.36;107711;1302;22281;-46
2023/03/14 13:37:22;;;;;;;9.20;4.50;;;;;;;10.12;93.08;97052.48;107469;1298;22438;-50
2023/03/14 13:39:53;;;;;;;14.10;6.00;;;;;;;10.15;92.03;97057.42;107737;1298;22261;-44
2023/03/14 13:42:19;;;;;;;10.30;6.40;;;;;;;10.16;90.62;97055.36;107677;1301;22257;-53
2023/03/14 13:44:45;;;;;;;10.50;6.40;;;;;;;10.18;91.05;97053.97;107443;1302;22387;-43
2023/03/14 13:47:20;;;;;;;8.50;4.80;;;;;;;10.19;91.65;97059.31;107723;1301;22355;-54
2023/03/14 13:49:46;;;;;;;14.50;8.00;;;;;;;10.19;92.01;97068.41;107691;1308;22429;-46
2023/03/14 13:52:27;;;;;;;11.30;5.60;;;;;;;10.22;90.60;97073.80;107471;1302;22245;-52
2023/03/14 13:54:54;;;;;;;16.50;6.40;;;;;;;10.18;92.00;97069.23;107682;1301;22222;-50
2023/03/14 13:57:19;;;;;;;14.30;5.80;;;;;;;10.15;93.39;97068.12;107655;1309;22498;-54
2023/03/14 14:00:00;;;;;;;9.00;5.50;;;;;;;10.20;92.02;97066.78;107650;1309;23032;-51
2023/03/14 14:02:27;;;;;;;10.60;5.90;;;;;;;10.20;91.85;97067.16;107472;1308;23083;-44
2023/03/14 14:04:53;;;;;;;10.60;6.50;;;;;;;10.19;92.13;97064.02;107670;1301;22356;-43
2023/03/14 14:07:19;;;;;;;13.10;7.20;;;;;;;10.19;92.20;97058.78;107453;1298;22240;-52
2023/03/14 14:09:48;;;;;;;8.70;5.40;;;;;;;10.22;91.76;97058.57;107669;1310;22256;-50
2023/03/14 14:12:24;;;;;;;20.10;8.70;;;;;;;10.24;91.40;97055.39;107669;1301;22243;-57
2023/03/14 14:14:53;;;;;;;20.20;9.60;;;;;;;10.26;91.07;97053.59;107700;1303;22231;-45
2023/03/14 14:17:23;;;;;;;15.70;7.10;;;;;;;10.25;91.28;97055.95;107484;1310;22404;-49
2023/03/14 14:19:50;;;;;;;8.00;5.60;;;;;;;10.25;91.17;97059.12;107672;1308;22494;-44
2023/03/14 14:22:17;;;;;;;11.10;5.60;;;;;;;10.28;90.77;97059.42;107694;1294;23287;-52
2023/03/14 14:24:42;;;;;;;9.80;5.10;;;;;;;10.23;91.31;97054.42;107645;1295;23129;-58
2023/03/14 14:27:25;;;;;;;13.00;5.50;;;;;;;10.29;90.23;97058.45;107703;1309;23108;-54
2023/03/14 14:30:12;;;;;;;10.10;5.50;;;;;;;10.30;90.45;97056.04;107732;1301;22204;-50
2023/03/14 14:32:38;;;;;;;;;;;;;;;10.34;90.53;97052.61;107759;1305;23146;-50
2023/03/14 14:35:05;;;;;;;8.20;4.60;;;;;;;10.37;91.25;97059.33;107642;1305;22179;-44
2023/03/14 14:37:33;;;;;;;11.30;5.10;;;;;;;10.43;89.99;97061.84;107681;1301;22431;-54
2023/03/14 14:40:06;;;;;;;13.50;5.20;;;;;;;10.46;90.28;97060.29;107708;1298;22249;-48
2023/03/14 14:42:32;;;;;;;9.80;4.30;;;;;;;10.47;90.69;97055.45;107696;1298;22392;-46
2023/03/14 14:44:59;;;;;;;8.30;4.40;;;;;;;10.44;90.62;97049.83;107735;1302;22441;-44
2023/03/14 14:47:26;;;;;;;9.40;4.40;;;;;;;10.44;90.26;97049.39;107660;1302;22324;-49
2023/03/14 14:49:58;;;;;;;7.80;4.70;;;;;;;10.48;89.52;97046.30;107691;1309;22217;-51